Time;durP1;ratioP1;P1;durP2;ratioP2;P2;SDS_P1;SDS_P2;PMS_P1;PMS_P2;Temp;Humidity;BMP_temperature;BMP_pressure;BME280_temperature;BME280_humidity;BME280_pressure;Samples;Min_cycle;Max_cycle;Signal;HPM_P1;HPM_P2
2022/11/22 00:02:12;;;;;;;4.60;1.60;;;7.60;99.90;;;;;;4979388;28;20049;-61
2022/11/22 00:04:37;;;;;;;11.82;2.60;;;7.60;99.90;;;;;;4979197;28;20034;-60
2022/11/22 00:07:03;;;;;;;5.53;1.50;;;7.50;99.90;;;;;;4986954;28;20027;-60
2022/11/22 00:09:28;;;;;;;6.07;1.15;;;7.60;99.90;;;;;;4983090;28;20408;-60
2022/11/22 00:11:54;;;;;;;4.85;2.03;;;7.60;99.90;;;;;;4984405;28;20037;-59
2022/11/22 00:14:19;;;;;;;5.55;1.38;;;7.60;99.90;;;;;;4987040;28;20037;-61
2022/11/22 00:16:45;;;;;;;5.43;1.52;;;7.60;99.90;;;;;;4980169;28;20034;-61
2022/11/22 00:19:10;;;;;;;4.88;1.55;;;7.50;99.90;;;;;;4976801;28;20046;-59
2022/11/22 00:21:36;;;;;;;3.75;1.33;;;7.50;99.90;;;;;;4979667;28;20041;-60
2022/11/22 00:24:01;;;;;;;5.32;1.42;;;7.50;99.90;;;;;;4978674;28;20033;-61
2022/11/22 00:26:27;;;;;;;6.95;1.75;;;7.50;99.90;;;;;;4978671;28;20500;-61
2022/11/22 00:28:52;;;;;;;6.97;1.67;;;7.50;99.90;;;;;;4980861;28;20030;-61
2022/11/22 00:31:18;;;;;;;7.90;1.65;;;7.50;99.90;;;;;;4981311;28;20113;-61
2022/11/22 00:33:43;;;;;;;4.55;1.50;;;7.50;99.90;;;;;;4982850;28;20109;-58
2022/11/22 00:36:09;;;;;;;10.52;2.20;;;7.50;99.90;;;;;;4986643;28;20112;-60
2022/11/22 00:38:34;;;;;;;6.78;1.40;;;7.50;99.90;;;;;;4979854;28;20042;-61
2022/11/22 00:41:00;;;;;;;5.05;1.60;;;7.50;99.90;;;;;;4993567;28;20034;-60
2022/11/22 00:43:26;;;;;;;7.72;2.05;;;7.50;99.90;;;;;;4986350;28;20393;-60
2022/11/22 00:45:51;;;;;;;8.60;1.75;;;7.50;99.90;;;;;;4982169;28;20504;-61
2022/11/22 00:48:17;;;;;;;13.27;1.58;;;7.50;99.90;;;;;;4991040;28;20026;-61
2022/11/22 00:50:42;;;;;;;3.58;1.58;;;7.50;99.90;;;;;;4988633;28;20084;-60
2022/11/22 00:53:08;;;;;;;4.05;1.10;;;7.50;99.90;;;;;;4981403;28;20140;-60
2022/11/22 00:55:34;;;;;;;5.00;1.55;;;7.50;99.90;;;;;;4983476;28;20093;-61
2022/11/22 00:57:59;;;;;;;7.13;1.75;;;7.50;99.90;;;;;;4992639;28;20041;-60
2022/11/22 01:00:25;;;;;;;6.50;1.55;;;7.40;99.90;;;;;;4989226;28;20034;-61
2022/11/22 01:02:50;;;;;;;1.85;1.30;;;7.40;99.90;;;;;;4997865;28;20476;-61
2022/11/22 01:05:16;;;;;;;4.03;1.48;;;7.50;99.90;;;;;;4997136;28;20038;-61
2022/11/22 01:07:43;;;;;;;19.88;2.38;;;7.40;99.90;;;;;;4985406;28;20015;-61
2022/11/22 01:10:09;;;;;;;6.05;1.27;;;7.30;99.90;;;;;;4993162;28;20181;-61
2022/11/22 01:12:35;;;;;;;4.60;1.48;;;7.30;99.90;;;;;;4967812;28;20030;-61
2022/11/22 01:15:01;;;;;;;6.25;1.17;;;7.30;99.90;;;;;;4980766;28;20027;-61
2022/11/22 01:17:27;;;;;;;5.35;1.50;;;7.20;99.90;;;;;;4985507;28;20060;-61
2022/11/22 01:19:52;;;;;;;5.60;1.48;;;7.10;99.90;;;;;;4983027;28;20027;-61
2022/11/22 01:22:18;;;;;;;7.65;1.45;;;7.00;99.90;;;;;;4984235;28;20049;-60
2022/11/22 01:24:44;;;;;;;5.65;2.30;;;6.90;99.90;;;;;;4983573;28;20037;-60
2022/11/22 01:27:09;;;;;;;3.80;1.45;;;7.00;99.90;;;;;;4984104;28;20472;-60
2022/11/22 01:29:35;;;;;;;11.82;1.80;;;6.80;99.90;;;;;;4988911;28;20033;-61
2022/11/22 01:32:00;;;;;;;5.45;1.40;;;6.90;99.90;;;;;;4984590;28;20022;-58
2022/11/22 01:34:26;;;;;;;5.47;1.25;;;6.80;99.90;;;;;;4981999;28;20034;-58
2022/11/22 01:36:51;;;;;;;7.28;1.50;;;6.70;99.90;;;;;;4982880;28;20034;-59
2022/11/22 01:39:17;;;;;;;11.38;2.28;;;6.70;99.90;;;;;;4982389;28;20172;-61
2022/11/22 01:41:43;;;;;;;6.72;1.33;;;6.60;99.90;;;;;;4981585;28;20065;-59
2022/11/22 01:44:22;;;;;;;6.97;1.70;;;6.50;99.90;;;;;;4980761;28;20053;-60
2022/11/22 01:46:52;;;;;;;9.20;1.27;;;6.50;99.90;;;;;;4980470;28;20487;-60
2022/11/22 01:49:28;;;;;;;5.38;1.48;;;6.40;99.90;;;;;;4982312;28;20077;-60
2022/11/22 01:51:58;;;;;;;5.43;1.30;;;6.40;99.90;;;;;;4981973;28;20923;-60
2022/11/22 01:54:28;;;;;;;3.45;1.35;;;6.40;99.90;;;;;;4981254;28;20121;-60
2022/11/22 01:56:59;;;;;;;4.72;1.33;;;6.30;99.90;;;;;;5005611;23;20054;-63
2022/11/22 01:59:29;;;;;;;7.07;1.10;;;6.20;99.90;;;;;;4983983;28;20096;-62
2022/11/22 02:01:55;;;;;;;6.07;1.20;;;6.20;99.90;;;;;;4983470;28;20038;-64
2022/11/22 02:04:22;;;;;;;5.32;1.30;;;6.20;99.90;;;;;;4986753;28;20030;-60
2022/11/22 02:06:51;;;;;;;8.75;1.95;;;6.20;99.90;;;;;;4975667;28;20026;-60
2022/11/22 02:09:17;;;;;;;4.43;1.15;;;6.20;99.90;;;;;;4985055;28;20046;-60
2022/11/22 02:11:47;;;;;;;3.92;1.08;;;6.20;99.90;;;;;;4970670;28;20042;-60
2022/11/22 02:14:15;;;;;;;4.05;1.35;;;6.10;99.90;;;;;;4984301;28;20031;-62
2022/11/22 02:16:44;;;;;;;7.40;1.33;;;6.10;99.90;;;;;;4988682;28;20057;-60
2022/11/22 02:19:21;;;;;;;3.35;1.17;;;6.10;99.90;;;;;;4976426;28;20030;-60
2022/11/22 02:21:53;;;;;;;6.10;1.23;;;6.10;99.90;;;;;;4990258;28;20030;-61
2022/11/22 02:24:38;;;;;;;7.97;1.17;;;6.00;99.90;;;;;;4982111;28;20019;-62
2022/11/22 02:27:03;;;;;;;4.95;1.10;;;5.90;99.90;;;;;;4991064;28;20091;-58
2022/11/22 02:29:31;;;;;;;4.10;0.88;;;6.00;99.90;;;;;;4989832;28;20033;-58
2022/11/22 02:31:56;;;;;;;3.95;1.20;;;5.90;99.90;;;;;;4985997;28;20131;-60
2022/11/22 02:34:22;;;;;;;3.10;1.13;;;5.80;99.90;;;;;;4986417;28;20030;-61
2022/11/22 02:36:53;;;;;;;10.75;2.90;;;5.80;99.90;;;;;;4987646;28;20041;-60
2022/11/22 02:39:28;;;;;;;6.20;1.13;;;5.80;99.90;;;;;;4992506;28;20081;-61
2022/11/22 02:41:55;;;;;;;3.55;1.30;;;5.80;99.90;;;;;;4990766;28;20022;-59
2022/11/22 02:44:21;;;;;;;3.67;1.33;;;5.80;99.90;;;;;;4987352;28;20031;-58
2022/11/22 02:46:49;;;;;;;3.42;1.05;;;5.70;99.90;;;;;;4994033;28;20033;-58
2022/11/22 02:49:19;;;;;;;6.35;1.45;;;5.70;99.90;;;;;;4991922;28;20026;-59
2022/11/22 02:51:45;;;;;;;4.18;1.45;;;5.70;99.90;;;;;;4988460;28;20034;-60
2022/11/22 02:54:11;;;;;;;5.68;1.35;;;5.60;99.90;;;;;;4981895;28;20081;-61
2022/11/22 02:56:37;;;;;;;3.78;0.90;;;5.60;99.90;;;;;;4988043;28;20042;-61
2022/11/22 02:59:02;;;;;;;3.67;1.10;;;5.60;99.90;;;;;;4992334;28;20119;-60
2022/11/22 03:01:28;;;;;;;9.73;1.25;;;5.50;99.90;;;;;;4987352;28;20121;-58
2022/11/22 03:03:54;;;;;;;2.88;1.23;;;5.40;99.90;;;;;;4987365;28;20489;-61
2022/11/22 03:06:19;;;;;;;5.80;1.27;;;5.20;99.90;;;;;;4987462;28;20041;-61
2022/11/22 03:08:47;;;;;;;6.78;1.15;;;5.20;99.90;;;;;;4991155;28;20029;-62
2022/11/22 03:11:13;;;;;;;5.28;1.10;;;5.00;99.90;;;;;;4986016;28;20112;-60
2022/11/22 03:13:38;;;;;;;2.65;1.20;;;5.00;99.90;;;;;;4987016;28;20453;-64
2022/11/22 03:16:04;;;;;;;1.77;0.85;;;5.00;99.90;;;;;;4984265;28;20558;-60
2022/11/22 03:18:32;;;;;;;4.05;1.23;;;5.00;99.90;;;;;;4997737;28;20066;-60
2022/11/22 03:21:02;;;;;;;3.95;1.23;;;4.90;99.90;;;;;;4991071;28;20085;-60
2022/11/22 03:23:28;;;;;;;2.92;1.20;;;5.00;99.90;;;;;;4983751;28;20027;-61
2022/11/22 03:25:54;;;;;;;6.95;1.20;;;4.90;99.90;;;;;;4984457;28;20050;-63
2022/11/22 03:28:19;;;;;;;5.00;1.33;;;4.90;99.90;;;;;;4989575;28;20116;-63
2022/11/22 03:30:45;;;;;;;6.85;1.33;;;4.80;99.90;;;;;;4982435;28;20034;-63
2022/11/22 03:33:10;;;;;;;6.60;1.20;;;4.70;99.90;;;;;;4988968;28;20133;-55
2022/11/22 03:35:36;;;;;;;8.50;1.10;;;4.60;99.90;;;;;;4990585;28;20459;-63
2022/11/22 03:38:02;;;;;;;6.05;1.33;;;4.60;99.90;;;;;;4984985;28;20029;-61
2022/11/22 03:40:27;;;;;;;3.75;1.13;;;4.60;99.90;;;;;;4987659;28;20041;-62
2022/11/22 03:42:53;;;;;;;11.35;1.38;;;4.60;99.90;;;;;;4986727;28;20022;-60
2022/11/22 03:45:19;;;;;;;4.25;1.38;;;4.60;99.90;;;;;;4986946;28;20014;-63
2022/11/22 03:47:44;;;;;;;3.65;1.08;;;4.50;99.90;;;;;;4986222;28;20076;-62
2022/11/22 03:50:10;;;;;;;7.80;1.30;;;4.50;99.90;;;;;;4989054;28;20104;-62
2022/11/22 03:52:35;;;;;;;4.57;1.15;;;4.50;99.90;;;;;;4989575;28;20030;-62
2022/11/22 03:55:01;;;;;;;3.30;1.30;;;4.50;99.90;;;;;;4987671;28;20026;-58
2022/11/22 03:57:27;;;;;;;10.07;1.30;;;4.50;99.90;;;;;;4987982;28;20034;-58
2022/11/22 03:59:52;;;;;;;6.10;1.50;;;4.50;99.90;;;;;;4994173;28;20049;-58
2022/11/22 04:02:18;;;;;;;6.07;1.08;;;4.60;99.90;;;;;;4988976;28;20468;-63
2022/11/22 04:04:43;;;;;;;10.20;1.38;;;4.60;99.90;;;;;;4982238;28;20042;-60
2022/11/22 04:07:09;;;;;;;2.63;1.20;;;4.50;99.90;;;;;;4988673;28;20042;-54
2022/11/22 04:09:34;;;;;;;7.88;1.70;;;4.50;99.90;;;;;;4986819;28;20040;-62
2022/11/22 04:12:00;;;;;;;8.43;2.78;;;4.50;99.90;;;;;;4988287;28;20049;-61
2022/11/22 04:17:39;;;;;;;5.05;1.45;;;4.50;99.90;;;;;;4987540;28;20028;-59
2022/11/22 04:21:32;;;;;;;6.65;1.48;;;4.40;99.90;;;;;;4990404;28;20038;-60
2022/11/22 04:22:44;;;;;;;2.35;1.00;;;4.40;99.90;;;;;;4987190;28;20440;-60
2022/11/22 04:25:12;;;;;;;6.00;1.40;;;4.40;99.90;;;;;;4986894;28;20026;-60
2022/11/22 04:27:38;;;;;;;6.10;1.13;;;4.40;99.90;;;;;;4991127;28;20022;-61
2022/11/22 04:30:04;;;;;;;6.18;1.52;;;4.40;99.90;;;;;;4987212;28;20397;-59
2022/11/22 04:32:45;;;;;;;5.53;1.55;;;4.30;99.90;;;;;;4991880;28;20022;-59
2022/11/22 04:35:12;;;;;;;7.43;1.58;;;4.30;99.90;;;;;;4987934;28;20033;-58
2022/11/22 04:37:38;;;;;;;8.13;1.23;;;4.20;99.90;;;;;;4990503;28;20030;-64
2022/11/22 04:40:04;;;;;;;4.53;1.52;;;4.20;99.90;;;;;;4987072;28;20085;-59
2022/11/22 04:45:13;;;;;;;6.43;1.30;;;4.00;99.90;;;;;;4973978;28;20037;-64
2022/11/22 04:53:08;;;;;;;2.03;1.00;;;3.90;99.90;;;;;;4981179;28;20073;-58
2022/11/22 04:55:33;;;;;;;5.63;1.20;;;3.90;99.90;;;;;;4979908;28;20497;-59
2022/11/22 04:57:59;;;;;;;13.18;1.70;;;3.90;99.90;;;;;;4979343;28;20026;-65
2022/11/22 05:00:26;;;;;;;9.30;1.60;;;3.80;99.90;;;;;;4978173;28;20042;-65
2022/11/22 05:02:52;;;;;;;6.38;1.48;;;3.70;99.90;;;;;;4979552;28;20990;-61
2022/11/22 05:05:17;;;;;;;8.00;1.30;;;3.70;99.90;;;;;;4979939;28;20026;-61
2022/11/22 05:07:43;;;;;;;3.60;1.52;;;3.70;99.90;;;;;;4978451;28;20026;-56
2022/11/22 05:10:10;;;;;;;6.18;1.77;;;3.70;99.90;;;;;;4982203;28;20026;-60
2022/11/22 05:12:36;;;;;;;6.32;1.67;;;3.80;99.90;;;;;;4982199;28;20061;-62
2022/11/22 05:15:02;;;;;;;12.35;2.05;;;3.80;99.90;;;;;;4981661;28;20058;-59
2022/11/22 05:17:27;;;;;;;15.80;2.03;;;3.80;99.90;;;;;;4979629;28;20023;-60
2022/11/22 05:19:52;;;;;;;19.27;4.57;;;3.80;99.90;;;;;;4984972;28;20484;-59
2022/11/22 05:23:52;;;;;;;9.35;1.70;;;3.90;99.90;;;;;;4984142;28;20500;-57
2022/11/22 05:25:04;;;;;;;8.55;2.28;;;3.90;99.90;;;;;;4986306;28;20116;-57
2022/11/22 05:27:29;;;;;;;9.10;1.63;;;3.90;99.90;;;;;;4985051;28;20053;-56
2022/11/22 05:29:55;;;;;;;18.80;2.95;;;3.90;99.90;;;;;;4987988;28;20435;-55
2022/11/22 05:32:20;;;;;;;15.38;2.63;;;3.90;99.90;;;;;;4981792;28;20089;-52
2022/11/22 05:34:46;;;;;;;12.05;3.13;;;3.90;99.90;;;;;;4982316;28;20027;-63
2022/11/22 05:37:11;;;;;;;11.57;1.70;;;3.90;99.90;;;;;;4989996;28;20034;-63
2022/11/22 05:39:37;;;;;;;11.95;2.20;;;3.90;99.90;;;;;;4986544;28;20772;-59
2022/11/22 05:42:04;;;;;;;12.95;1.77;;;3.90;99.90;;;;;;4990203;28;20480;-60
2022/11/22 05:44:30;;;;;;;15.82;1.77;;;3.90;99.90;;;;;;4990794;28;20010;-57
2022/11/22 05:46:55;;;;;;;14.00;2.10;;;3.80;99.90;;;;;;4990440;28;20535;-63
2022/11/22 05:49:21;;;;;;;11.73;1.60;;;3.80;99.90;;;;;;4986721;28;20504;-62
2022/11/22 05:51:47;;;;;;;6.00;1.17;;;3.80;99.90;;;;;;4987059;28;20476;-60
2022/11/22 05:54:12;;;;;;;9.10;2.05;;;3.80;99.90;;;;;;5002113;28;20110;-62
2022/11/22 05:56:38;;;;;;;7.53;1.33;;;3.80;99.90;;;;;;4990202;28;20042;-59
2022/11/22 05:59:03;;;;;;;14.90;2.13;;;3.80;99.90;;;;;;4986028;28;20036;-59
2022/11/22 06:01:29;;;;;;;11.52;2.00;;;3.70;99.90;;;;;;4985644;28;20026;-59
2022/11/22 06:03:54;;;;;;;6.60;1.70;;;3.60;99.90;;;;;;4990915;28;21307;-57
2022/11/22 06:06:20;;;;;;;18.15;2.63;;;3.70;99.90;;;;;;4989704;28;20035;-55
2022/11/22 06:08:46;;;;;;;11.65;1.70;;;3.60;99.90;;;;;;4989959;28;20101;-59
2022/11/22 06:11:20;;;;;;;11.52;1.65;;;3.60;99.90;;;;;;4989875;28;20041;-59
2022/11/22 06:13:48;;;;;;;13.95;2.28;;;3.60;99.90;;;;;;4988491;28;20026;-63
2022/11/22 06:16:14;;;;;;;8.73;2.55;;;3.60;99.90;;;;;;4988703;28;20053;-62
2022/11/22 06:18:40;;;;;;;13.13;1.85;;;3.60;99.90;;;;;;4995053;28;20058;-62
2022/11/22 06:21:09;;;;;;;10.15;2.38;;;3.70;99.90;;;;;;4981247;28;20062;-60
2022/11/22 06:23:34;;;;;;;11.13;2.40;;;3.70;99.90;;;;;;4986616;28;20037;-60
2022/11/22 06:26:11;;;;;;;16.20;3.20;;;3.70;99.90;;;;;;4981026;28;20037;-60
2022/11/22 06:28:38;;;;;;;13.32;2.30;;;3.80;99.90;;;;;;4985393;28;20018;-60
2022/11/22 06:31:06;;;;;;;11.30;1.92;;;3.80;99.90;;;;;;4988382;28;20027;-60
2022/11/22 06:33:32;;;;;;;26.95;3.10;;;3.80;99.90;;;;;;4986442;28;20030;-62
2022/11/22 06:36:10;;;;;;;11.43;3.10;;;3.80;99.90;;;;;;4990814;28;20132;-60
2022/11/22 06:38:37;;;;;;;10.35;2.50;;;3.90;99.90;;;;;;4987999;28;20507;-62
2022/11/22 06:41:04;;;;;;;12.65;2.50;;;3.90;99.90;;;;;;4991193;28;20116;-62
2022/11/22 06:43:31;;;;;;;8.98;2.20;;;3.90;99.90;;;;;;4990434;28;20029;-61
2022/11/22 06:45:58;;;;;;;12.77;2.20;;;4.00;99.90;;;;;;4990737;28;20076;-62
2022/11/22 06:48:25;;;;;;;11.38;2.65;;;4.00;99.90;;;;;;4991246;28;20018;-62
2022/11/22 06:50:50;;;;;;;13.63;2.65;;;4.00;99.90;;;;;;4989918;28;20088;-62
2022/11/22 06:53:16;;;;;;;19.45;2.50;;;4.10;99.90;;;;;;4989397;28;20066;-60
2022/11/22 06:55:42;;;;;;;19.98;3.25;;;4.20;99.90;;;;;;4989857;28;20117;-60
2022/11/22 06:58:08;;;;;;;26.08;3.60;;;4.20;99.90;;;;;;4990598;28;20112;-63
2022/11/22 07:00:33;;;;;;;18.05;3.80;;;4.20;99.90;;;;;;4990681;28;20039;-62
2022/11/22 07:02:59;;;;;;;29.00;4.40;;;4.20;99.90;;;;;;4989178;28;20027;-62
2022/11/22 07:05:24;;;;;;;21.80;2.88;;;4.20;99.90;;;;;;4986708;28;20029;-59
2022/11/22 07:07:50;;;;;;;18.10;3.25;;;4.20;99.90;;;;;;4990280;28;20018;-57
2022/11/22 07:10:15;;;;;;;9.23;2.28;;;4.20;99.90;;;;;;4987399;28;20105;-60
2022/11/22 07:12:41;;;;;;;10.68;1.80;;;4.30;99.90;;;;;;4991142;28;20346;-59
2022/11/22 07:15:07;;;;;;;8.05;1.88;;;4.30;99.90;;;;;;4982740;28;20081;-59
2022/11/22 07:17:32;;;;;;;12.45;1.60;;;4.40;99.90;;;;;;4987864;28;20076;-60
2022/11/22 07:19:58;;;;;;;13.38;2.00;;;4.40;99.90;;;;;;4984019;28;20027;-63
2022/11/22 07:22:23;;;;;;;8.82;2.15;;;4.40;99.90;;;;;;4990373;28;20014;-62
2022/11/22 07:24:49;;;;;;;18.52;1.80;;;4.50;99.90;;;;;;4983980;28;20026;-60
2022/11/22 07:27:14;;;;;;;6.90;1.83;;;4.70;99.90;;;;;;4993015;28;20105;-62
2022/11/22 07:29:40;;;;;;;30.10;3.08;;;4.80;99.90;;;;;;4986180;28;20022;-61
2022/11/22 07:32:05;;;;;;;14.90;2.38;;;4.80;99.90;;;;;;4985677;28;20026;-63
2022/11/22 07:34:31;;;;;;;15.07;2.22;;;4.80;99.90;;;;;;4981629;28;20492;-59
2022/11/22 07:36:56;;;;;;;21.00;2.38;;;4.80;99.90;;;;;;4987410;28;20031;-59
2022/11/22 07:39:22;;;;;;;11.75;1.88;;;4.80;99.90;;;;;;4989874;28;20057;-60
2022/11/22 07:41:47;;;;;;;16.70;2.72;;;4.80;99.90;;;;;;4986868;28;20023;-65
2022/11/22 07:44:13;;;;;;;17.88;2.45;;;4.90;99.90;;;;;;4984636;28;20496;-61
2022/11/22 07:46:38;;;;;;;11.82;2.15;;;4.90;99.90;;;;;;4989869;28;20026;-62
2022/11/22 07:49:04;;;;;;;15.63;2.63;;;4.90;99.90;;;;;;4986758;28;20064;-62
2022/11/22 07:51:30;;;;;;;6.15;2.08;;;4.90;99.90;;;;;;4989440;28;20830;-63
2022/11/22 07:53:55;;;;;;;11.52;2.22;;;4.90;99.90;;;;;;4989857;28;20022;-62
2022/11/22 07:56:22;;;;;;;12.73;1.85;;;4.90;99.90;;;;;;4972081;28;20089;-64
2022/11/22 07:58:47;;;;;;;17.88;2.65;;;4.90;99.90;;;;;;5012249;23;20073;-62
2022/11/22 08:01:15;;;;;;;15.23;2.28;;;4.90;99.90;;;;;;5005781;28;20084;-60
2022/11/22 08:03:41;;;;;;;8.82;1.70;;;4.90;99.90;;;;;;5008841;28;20503;-61
2022/11/22 08:06:08;;;;;;;12.02;1.75;;;4.90;99.90;;;;;;5009526;28;20040;-60
2022/11/22 08:08:34;;;;;;;13.27;2.30;;;5.00;99.90;;;;;;5004741;28;20049;-62
2022/11/22 08:11:00;;;;;;;8.75;2.20;;;5.10;99.90;;;;;;4989281;28;20058;-61
2022/11/22 08:13:26;;;;;;;24.42;2.45;;;5.20;99.90;;;;;;4994335;28;20062;-61
2022/11/22 08:15:52;;;;;;;10.20;1.77;;;5.30;99.90;;;;;;4992528;28;20033;-61
2022/11/22 08:18:17;;;;;;;9.88;2.13;;;5.30;99.90;;;;;;4989472;28;20037;-61
2022/11/22 08:20:43;;;;;;;10.65;1.60;;;5.30;99.90;;;;;;4988577;28;20049;-60
2022/11/22 08:23:09;;;;;;;4.95;1.25;;;5.40;99.90;;;;;;4989926;28;20066;-61
2022/11/22 08:25:34;;;;;;;10.50;2.08;;;5.40;99.90;;;;;;4989327;28;20057;-60
2022/11/22 08:28:00;;;;;;;9.60;1.50;;;5.40;99.90;;;;;;4989968;28;20030;-62
2022/11/22 08:30:25;;;;;;;8.10;1.65;;;5.50;99.90;;;;;;4994204;28;20042;-61
2022/11/22 08:32:54;;;;;;;9.70;1.75;;;5.70;99.90;;;;;;4984958;28;20035;-61
2022/11/22 08:35:20;;;;;;;10.30;1.92;;;5.80;99.90;;;;;;4988669;28;20038;-61
2022/11/22 08:37:45;;;;;;;9.32;1.83;;;5.90;99.90;;;;;;4988736;28;20022;-62
2022/11/22 08:40:11;;;;;;;12.38;1.67;;;6.00;99.90;;;;;;4991409;28;20469;-61
2022/11/22 08:42:37;;;;;;;11.82;1.92;;;6.10;99.90;;;;;;4993429;28;20419;-62
2022/11/22 08:45:04;;;;;;;12.45;1.73;;;6.20;99.90;;;;;;4990827;28;20033;-59
2022/11/22 08:47:30;;;;;;;11.32;1.48;;;6.30;99.90;;;;;;4989763;28;20113;-60
2022/11/22 08:49:55;;;;;;;7.50;1.20;;;6.50;99.90;;;;;;4994906;28;20117;-62
2022/11/22 08:52:21;;;;;;;8.55;1.48;;;6.60;99.90;;;;;;4992847;28;20121;-61
2022/11/22 08:54:46;;;;;;;7.18;1.92;;;6.70;99.90;;;;;;4996937;28;20058;-62
2022/11/22 08:57:12;;;;;;;5.30;1.23;;;6.80;99.90;;;;;;4992937;28;20391;-62
2022/11/22 08:59:37;;;;;;;7.88;1.98;;;6.90;99.90;;;;;;4991659;28;20049;-63
2022/11/22 09:02:03;;;;;;;8.50;1.42;;;7.00;99.90;;;;;;4996848;28;20042;-63
2022/11/22 09:04:29;;;;;;;10.23;1.17;;;7.10;99.90;;;;;;4996680;28;20014;-62
2022/11/22 09:06:55;;;;;;;10.10;1.98;;;7.30;99.90;;;;;;4993476;28;20033;-63
2022/11/22 09:09:21;;;;;;;12.63;1.10;;;7.50;99.90;;;;;;4992949;28;20366;-62
2022/11/22 09:11:46;;;;;;;12.48;1.45;;;7.60;99.90;;;;;;4993124;28;20101;-61
2022/11/22 09:14:12;;;;;;;9.88;1.73;;;7.70;99.90;;;;;;4995324;28;20439;-63
2022/11/22 09:16:37;;;;;;;7.50;1.10;;;7.80;99.90;;;;;;4993202;28;20038;-62
2022/11/22 09:19:03;;;;;;;17.05;1.90;;;7.80;99.90;;;;;;4995324;28;20070;-63
2022/11/22 09:21:29;;;;;;;9.48;1.35;;;7.70;99.90;;;;;;4990137;28;20096;-62
2022/11/22 09:23:54;;;;;;;8.68;1.20;;;7.70;99.90;;;;;;4991714;28;20492;-63
2022/11/22 09:26:23;;;;;;;4.55;1.23;;;7.70;99.90;;;;;;4993521;28;20456;-62
2022/11/22 09:28:50;;;;;;;5.10;1.10;;;7.70;99.90;;;;;;4985628;28;20526;-64
2022/11/22 09:31:21;;;;;;;6.72;1.33;;;7.80;99.90;;;;;;4990579;28;20069;-61
2022/11/22 09:33:48;;;;;;;8.75;1.35;;;7.90;99.90;;;;;;4992710;28;20687;-63
2022/11/22 09:36:19;;;;;;;8.95;1.23;;;8.00;99.90;;;;;;4992076;28;20026;-63
2022/11/22 09:38:45;;;;;;;10.82;1.20;;;8.00;99.90;;;;;;4986773;28;20022;-63
2022/11/22 09:41:20;;;;;;;6.57;0.95;;;8.00;99.90;;;;;;4996948;28;20035;-61
2022/11/22 09:44:19;;;;;;;9.88;1.20;;;8.10;99.90;;;;;;4998205;28;20026;-63
2022/11/22 09:46:53;;;;;;;14.75;1.73;;;8.20;99.90;;;;;;4992646;28;20435;-62
2022/11/22 09:49:32;;;;;;;7.53;1.67;;;8.20;99.90;;;;;;4991960;28;20529;-64
2022/11/22 09:52:06;;;;;;;5.78;0.85;;;8.20;99.90;;;;;;4979995;28;20058;-64
2022/11/22 09:54:39;;;;;;;4.35;0.93;;;8.30;99.90;;;;;;4986359;28;20054;-64
2022/11/22 09:57:12;;;;;;;11.57;1.05;;;8.20;99.90;;;;;;4996621;28;20033;-63
2022/11/22 09:59:43;;;;;;;8.35;1.27;;;8.30;99.90;;;;;;4991531;28;20034;-63
2022/11/22 10:02:20;;;;;;;5.95;1.05;;;8.30;99.90;;;;;;4993343;28;20088;-62
2022/11/22 10:05:34;;;;;;;7.20;1.45;;;8.40;99.90;;;;;;4990499;28;20022;-63
2022/11/22 10:08:19;;;;;;;5.72;0.82;;;8.40;99.90;;;;;;4986443;28;20511;-62
2022/11/22 10:10:45;;;;;;;11.07;1.90;;;8.40;99.90;;;;;;4991985;28;20034;-63
2022/11/22 10:13:18;;;;;;;4.40;1.02;;;8.50;99.90;;;;;;4992034;28;20042;-63
2022/11/22 10:16:02;;;;;;;10.90;0.98;;;8.50;99.90;;;;;;4991462;28;20026;-64
2022/11/22 10:18:51;;;;;;;9.00;1.13;;;8.60;99.90;;;;;;4991267;28;20392;-62
2022/11/22 10:21:18;;;;;;;3.95;1.30;;;8.70;99.90;;;;;;4992732;28;20040;-62
2022/11/22 10:23:46;;;;;;;4.53;0.80;;;8.80;99.90;;;;;;4987438;28;20424;-64
2022/11/22 10:26:22;;;;;;;3.05;1.05;;;8.80;99.90;;;;;;4985556;28;20049;-64
2022/11/22 10:29:03;;;;;;;2.50;0.73;;;8.80;99.90;;;;;;4987826;28;20022;-62
2022/11/22 10:31:51;;;;;;;4.03;0.65;;;8.80;99.90;;;;;;4991571;28;20037;-64
2022/11/22 10:34:47;;;;;;;4.65;0.98;;;8.90;99.90;;;;;;4994726;28;20035;-61
2022/11/22 10:37:22;;;;;;;3.90;0.82;;;9.10;99.90;;;;;;4989420;28;20088;-62
2022/11/22 10:40:17;;;;;;;7.70;1.00;;;9.10;99.90;;;;;;4990962;28;20039;-62
2022/11/22 10:43:05;;;;;;;4.90;0.60;;;9.10;99.90;;;;;;4993086;28;20038;-61
2022/11/22 10:45:47;;;;;;;5.20;1.23;;;9.00;99.90;;;;;;4987659;28;20034;-63
2022/11/22 10:48:22;;;;;;;5.57;0.68;;;9.00;99.90;;;;;;4997591;28;20022;-62
2022/11/22 10:51:16;;;;;;;3.47;0.52;;;8.90;99.90;;;;;;4990025;28;20058;-62
2022/11/22 10:54:04;;;;;;;5.68;0.90;;;9.00;99.90;;;;;;4982009;28;20034;-64
2022/11/22 10:56:51;;;;;;;3.50;0.60;;;9.10;99.90;;;;;;4989993;28;20033;-62
2022/11/22 11:00:01;;;;;;;2.58;0.50;;;9.20;99.90;;;;;;4990497;28;20069;-64
2022/11/22 11:02:48;;;;;;;6.78;0.60;;;9.40;99.90;;;;;;4910996;29;20099;-64
2022/11/22 11:05:18;;;;;;;2.95;0.88;;;9.50;99.90;;;;;;4984309;28;20041;-63
2022/11/22 11:07:47;;;;;;;2.40;0.60;;;9.50;99.90;;;;;;4983684;28;20026;-64
2022/11/22 11:10:17;;;;;;;3.75;0.50;;;9.60;99.90;;;;;;4989332;28;20447;-65
2022/11/22 11:12:57;;;;;;;2.03;0.70;;;9.60;99.90;;;;;;4986507;28;20113;-63
2022/11/22 11:15:38;;;;;;;1.50;0.50;;;9.60;99.90;;;;;;4986900;28;20030;-64
2022/11/22 11:18:15;;;;;;;4.22;0.40;;;9.80;99.90;;;;;;4982203;28;20037;-62
2022/11/22 11:20:42;;;;;;;5.53;0.68;;;9.80;99.90;;;;;;4981480;28;20038;-62
2022/11/22 11:23:11;;;;;;;2.50;0.90;;;9.80;99.90;;;;;;4990601;28;20109;-63
2022/11/22 11:25:39;;;;;;;6.28;1.88;;;9.70;99.90;;;;;;4991544;28;20026;-62
2022/11/22 11:28:07;;;;;;;4.57;0.50;;;9.90;99.90;;;;;;4989791;28;20397;-63
2022/11/22 11:30:43;;;;;;;3.08;0.55;;;10.00;99.90;;;;;;4992454;28;20456;-64
2022/11/22 11:33:24;;;;;;;1.95;0.50;;;10.00;99.90;;;;;;4988995;28;20420;-64
2022/11/22 11:35:54;;;;;;;2.50;0.60;;;10.00;99.90;;;;;;4985320;28;20598;-64
2022/11/22 11:38:56;;;;;;;5.93;0.80;;;10.00;99.90;;;;;;4990833;28;20113;-63
2022/11/22 11:41:29;;;;;;;0.90;0.50;;;9.90;99.90;;;;;;4968564;28;20527;-62
2022/11/22 11:44:00;;;;;;;3.83;0.63;;;9.90;99.90;;;;;;4996209;28;20440;-62
2022/11/22 11:46:28;;;;;;;4.85;0.95;;;9.80;99.90;;;;;;4991017;28;20546;-61
2022/11/22 11:49:15;;;;;;;2.13;0.95;;;9.80;99.90;;;;;;4984271;28;20385;-63
2022/11/22 11:51:43;;;;;;;3.92;0.75;;;9.80;99.90;;;;;;4990934;28;20089;-63
2022/11/22 11:54:17;;;;;;;6.57;1.10;;;9.80;99.90;;;;;;4990553;28;20113;-61
2022/11/22 11:56:47;;;;;;;4.13;0.63;;;10.00;99.90;;;;;;4988905;28;20504;-61
2022/11/22 11:59:15;;;;;;;2.55;0.70;;;10.30;99.90;;;;;;4993809;28;20030;-62
2022/11/22 12:01:54;;;;;;;2.45;0.50;;;10.40;99.90;;;;;;4990977;28;20026;-63
2022/11/22 12:04:27;;;;;;;3.60;0.70;;;10.60;99.90;;;;;;4988380;28;20023;-63
2022/11/22 12:06:55;;;;;;;2.65;0.68;;;10.50;99.90;;;;;;4986283;28;20022;-63
2022/11/22 12:09:36;;;;;;;5.20;0.50;;;10.20;99.90;;;;;;4983321;28;20023;-63
2022/11/22 12:12:10;;;;;;;2.13;0.50;;;10.10;99.90;;;;;;4991059;28;20030;-63
2022/11/22 12:14:38;;;;;;;6.10;0.63;;;10.20;99.90;;;;;;4987335;28;20404;-62
2022/11/22 12:17:09;;;;;;;0.93;0.57;;;10.10;99.90;;;;;;4985325;28;20034;-63
2022/11/22 12:19:46;;;;;;;3.63;0.88;;;10.00;99.90;;;;;;4987112;28;20026;-62
2022/11/22 12:22:24;;;;;;;2.70;0.85;;;9.90;99.90;;;;;;4984964;28;20030;-62
2022/11/22 12:25:15;;;;;;;5.72;0.90;;;9.80;99.90;;;;;;4982167;28;20022;-60
2022/11/22 12:27:40;;;;;;;2.38;0.60;;;9.80;99.90;;;;;;4996203;28;20022;-61
2022/11/22 12:30:11;;;;;;;6.28;0.70;;;9.70;99.90;;;;;;4992580;28;20054;-62
2022/11/22 12:32:42;;;;;;;1.35;0.60;;;9.80;99.90;;;;;;4996368;28;20076;-65
2022/11/22 12:35:18;;;;;;;10.80;1.80;;;9.70;99.90;;;;;;4997475;28;20694;-63
2022/11/22 12:38:07;;;;;;;4.63;0.70;;;9.60;99.90;;;;;;4982552;28;20111;-63
2022/11/22 12:40:41;;;;;;;2.33;0.50;;;9.60;99.90;;;;;;4999691;28;20037;-62
2022/11/22 12:43:20;;;;;;;3.60;0.50;;;9.50;99.90;;;;;;5001306;28;20030;-63
2022/11/22 12:46:03;;;;;;;2.47;0.52;;;9.50;99.90;;;;;;4993400;28;20022;-63
2022/11/22 12:48:44;;;;;;;1.52;0.70;;;9.50;99.90;;;;;;4995039;28;20014;-63
2022/11/22 12:51:23;;;;;;;2.67;0.80;;;9.40;99.90;;;;;;4981855;28;20085;-62
2022/11/22 12:53:50;;;;;;;1.40;0.50;;;9.50;99.90;;;;;;4996506;28;20077;-62
2022/11/22 12:56:20;;;;;;;3.78;0.80;;;9.50;99.90;;;;;;4995602;28;20104;-64
2022/11/22 12:58:56;;;;;;;1.92;0.50;;;9.50;99.90;;;;;;4998436;28;20122;-62
2022/11/22 13:01:31;;;;;;;8.43;0.73;;;9.50;99.90;;;;;;4989335;28;20041;-62
2022/11/22 13:04:12;;;;;;;2.88;0.77;;;9.50;99.90;;;;;;4993448;28;20029;-60
2022/11/22 13:07:01;;;;;;;6.18;0.85;;;9.50;99.90;;;;;;4991437;28;20026;-60
2022/11/22 13:09:37;;;;;;;3.53;0.40;;;9.50;99.90;;;;;;4993062;28;20026;-63
2022/11/22 13:12:12;;;;;;;1.20;0.30;;;9.50;99.90;;;;;;4990722;28;20041;-61
2022/11/22 13:14:40;;;;;;;2.53;0.75;;;9.60;99.90;;;;;;4995934;28;20137;-61
2022/11/22 13:17:11;;;;;;;5.38;0.75;;;9.60;99.90;;;;;;4994336;28;20033;-62